createdAt,value
2019-03-20T00:01:48.872Z,59.90
2019-03-20T00:04:54.038Z,60.00
2019-03-20T00:07:58.749Z,60.00
2019-03-20T00:11:03.480Z,60.00
2019-03-20T00:14:07.829Z,60.00
2019-03-20T00:17:12.238Z,59.90
2019-03-20T00:20:16.565Z,60.50
2019-03-20T00:23:20.905Z,59.90
2019-03-20T00:26:25.354Z,59.80
2019-03-20T00:29:29.679Z,59.80
2019-03-20T00:32:34.431Z,59.90
2019-03-20T00:35:38.846Z,59.90
2019-03-20T00:38:43.135Z,60.00
2019-03-20T00:41:47.612Z,59.80
2019-03-20T00:44:51.938Z,59.80
2019-03-20T00:47:57.749Z,59.80
2019-03-20T00:51:02.495Z,59.70
2019-03-20T00:54:10.464Z,59.70
2019-03-20T00:57:15.219Z,59.60
2019-03-20T01:00:20.820Z,59.60
2019-03-20T01:03:25.169Z,59.70
2019-03-20T01:06:29.513Z,59.70
2019-03-20T01:09:34.206Z,59.70
2019-03-20T01:12:38.564Z,59.70
2019-03-20T01:15:43.531Z,59.70
2019-03-20T01:18:47.998Z,59.70
2019-03-20T01:21:52.331Z,59.70
2019-03-20T01:24:56.964Z,59.80
2019-03-20T01:28:01.577Z,59.70
2019-03-20T01:31:06.768Z,59.70
2019-03-20T01:34:11.159Z,59.80
2019-03-20T01:37:15.483Z,59.80
2019-03-20T01:40:20.253Z,59.80
2019-03-20T01:43:24.637Z,59.80
2019-03-20T01:46:28.996Z,59.90
2019-03-20T01:49:34.149Z,60.60
2019-03-20T01:52:38.504Z,59.90
2019-03-20T01:55:42.933Z,59.90
2019-03-20T01:58:47.306Z,59.80
2019-03-20T02:01:51.637Z,59.80
2019-03-20T02:04:56.003Z,59.70
2019-03-20T02:08:00.336Z,59.50
2019-03-20T02:11:04.986Z,59.30
2019-03-20T02:14:10.747Z,59.10
2019-03-20T02:17:15.139Z,59.00
2019-03-20T02:20:21.401Z,59.00
2019-03-20T02:23:25.717Z,59.00
2019-03-20T02:26:30.341Z,59.10
2019-03-20T02:29:34.668Z,59.30
2019-03-20T02:32:39.038Z,59.30
2019-03-20T02:35:51.549Z,59.40
2019-03-20T02:38:49.744Z,59.30
2019-03-20T02:41:54.104Z,59.40
2019-03-20T02:44:58.443Z,59.50
2019-03-20T02:48:02.846Z,59.50
2019-03-20T02:51:07.231Z,59.50
2019-03-20T02:54:11.890Z,59.50
2019-03-20T02:57:17.717Z,59.60
2019-03-20T03:00:22.125Z,59.60
2019-03-20T03:03:26.932Z,59.70
2019-03-20T03:06:31.338Z,59.80
2019-03-20T03:09:35.660Z,59.80
2019-03-20T03:12:39.910Z,60.00
2019-03-20T03:15:44.261Z,60.00
2019-03-20T03:18:48.977Z,60.20
2019-03-20T03:21:53.600Z,61.00
2019-03-20T03:24:57.982Z,60.30
2019-03-20T03:28:02.723Z,60.30
2019-03-20T03:31:07.425Z,60.30
2019-03-20T03:34:13.638Z,60.30
2019-03-20T03:37:18.269Z,60.30
2019-03-20T03:40:23.064Z,60.30
2019-03-20T03:43:27.463Z,60.30
2019-03-20T03:46:31.865Z,60.40
2019-03-20T03:49:36.293Z,60.30
2019-03-20T03:52:40.990Z,60.30
2019-03-20T03:55:45.327Z,60.40
2019-03-20T03:58:49.698Z,60.50
2019-03-20T04:01:54.367Z,60.50
2019-03-20T04:04:58.902Z,60.50
2019-03-20T04:08:03.287Z,60.50
2019-03-20T04:11:07.655Z,60.70
2019-03-20T04:14:11.965Z,60.80
2019-03-20T04:17:24.796Z,60.80
2019-03-20T04:20:31.570Z,60.90
2019-03-20T04:23:36.302Z,60.80
2019-03-20T04:26:40.654Z,60.90
2019-03-20T04:29:45.181Z,60.90
2019-03-20T04:32:50.233Z,60.70
2019-03-20T04:35:54.566Z,60.80
2019-03-20T04:38:59.298Z,60.80
2019-03-20T04:42:03.641Z,60.70
2019-03-20T04:45:12.511Z,60.80
2019-03-20T04:48:17.173Z,60.70
2019-03-20T04:51:21.509Z,60.80
2019-03-20T04:54:27.725Z,60.90
2019-03-20T04:57:34.178Z,60.90
2019-03-20T05:00:38.508Z,60.80
2019-03-20T05:03:42.917Z,60.90
2019-03-20T05:06:58.414Z,61.10
2019-03-20T05:09:55.214Z,61.20
2019-03-20T05:12:59.525Z,61.30
2019-03-20T05:16:03.862Z,61.40
2019-03-20T05:19:08.166Z,61.50
2019-03-20T05:22:13.965Z,61.50
2019-03-20T05:25:18.312Z,61.60
2019-03-20T05:28:22.743Z,61.60
2019-03-20T05:31:27.097Z,61.60
2019-03-20T05:34:31.426Z,61.60
2019-03-20T05:37:35.767Z,61.70
2019-03-20T05:40:40.113Z,61.70
2019-03-20T05:43:44.866Z,61.70
2019-03-20T05:46:50.001Z,61.80
2019-03-20T05:49:54.437Z,61.80
2019-03-20T05:52:59.558Z,62.00
2019-03-20T05:56:03.865Z,62.20
2019-03-20T05:59:08.172Z,62.20
2019-03-20T06:02:12.812Z,62.50
2019-03-20T06:05:17.221Z,62.60
2019-03-20T06:08:21.996Z,62.70
2019-03-20T06:11:26.375Z,62.60
2019-03-20T06:14:31.065Z,62.60
2019-03-20T06:17:36.084Z,62.60
2019-03-20T06:20:40.458Z,62.60
2019-03-20T06:23:44.777Z,62.60
2019-03-20T06:26:49.097Z,62.50
2019-03-20T06:29:53.421Z,62.50
2019-03-20T06:32:59.762Z,62.40
2019-03-20T06:36:03.905Z,62.40
2019-03-20T06:39:09.317Z,62.30
2019-03-20T06:42:14.144Z,62.30
2019-03-20T06:45:20.265Z,62.20
2019-03-20T06:48:24.613Z,62.10
2019-03-20T06:51:28.954Z,62.10
2019-03-20T06:54:33.345Z,62.00
2019-03-20T06:57:38.135Z,62.00
2019-03-20T07:01:13.083Z,62.00
2019-03-20T07:04:58.304Z,62.00
2019-03-20T07:08:02.725Z,61.50
2019-03-20T07:11:06.890Z,61.90
2019-03-20T07:14:11.652Z,61.90
2019-03-20T07:17:15.967Z,61.90
2019-03-20T07:20:20.302Z,62.10
2019-03-20T07:23:24.639Z,62.20
2019-03-20T07:26:29.521Z,62.60
2019-03-20T07:29:33.873Z,63.70
2019-03-20T07:32:38.211Z,65.40
2019-03-20T07:36:18.487Z,66.70
2019-03-20T07:39:23.320Z,67.30
2019-03-20T07:42:28.110Z,67.70
2019-03-20T07:45:32.559Z,67.60
2019-03-20T07:48:37.374Z,66.90
2019-03-20T07:51:41.865Z,66.00
2019-03-20T07:54:46.360Z,65.20
2019-03-20T07:57:50.816Z,64.30
2019-03-20T08:00:55.276Z,63.30
2019-03-20T08:03:59.767Z,62.40
2019-03-20T08:07:07.263Z,61.30
2019-03-20T08:10:13.419Z,60.40
2019-03-20T08:13:17.840Z,59.40
2019-03-20T08:16:22.709Z,59.00
2019-03-20T08:19:27.168Z,59.30
2019-03-20T08:22:31.626Z,58.00
2019-03-20T08:25:36.435Z,57.40
2019-03-20T08:28:40.893Z,57.40
2019-03-20T08:31:47.888Z,56.20
2019-03-20T08:34:52.789Z,55.70
2019-03-20T08:37:57.236Z,55.30
2019-03-20T08:41:01.679Z,55.00
2019-03-20T08:44:06.134Z,54.80
2019-03-20T08:47:10.602Z,54.50
2019-03-20T08:50:17.195Z,54.00
2019-03-20T08:53:25.196Z,53.40
2019-03-20T08:56:30.470Z,53.00
2019-03-20T08:59:37.182Z,52.10
2019-03-20T09:02:41.966Z,51.70
2019-03-20T09:05:46.419Z,51.30
2019-03-20T09:08:52.686Z,51.10
2019-03-20T09:11:57.149Z,50.50
2019-03-20T09:15:01.619Z,50.20
2019-03-20T09:18:10.059Z,50.00
2019-03-20T09:21:15.815Z,49.50
2019-03-20T09:24:23.350Z,49.30
2019-03-20T09:27:29.050Z,47.50
2019-03-20T09:30:36.309Z,47.30
2019-03-20T09:33:44.273Z,47.60
2019-03-20T09:36:49.029Z,47.90
2019-03-20T09:39:53.875Z,47.70
2019-03-20T09:42:59.434Z,47.50
2019-03-20T09:46:03.914Z,47.80
2019-03-20T09:49:12.021Z,47.10
2019-03-20T09:52:16.867Z,46.80
2019-03-20T09:55:22.049Z,46.90
2019-03-20T09:58:26.516Z,46.20
2019-03-20T10:01:31.004Z,46.20
2019-03-20T10:04:36.623Z,46.10
2019-03-20T10:07:41.438Z,46.20
2019-03-20T10:10:48.843Z,45.80
2019-03-20T10:13:54.298Z,45.20
2019-03-20T10:17:00.321Z,45.20
2019-03-20T10:20:05.942Z,45.10
2019-03-20T10:23:12.200Z,44.70
2019-03-20T10:26:17.419Z,44.10
2019-03-20T10:29:22.159Z,43.70
2019-03-20T10:32:26.633Z,44.20
2019-03-20T10:35:32.229Z,44.20
2019-03-20T10:38:37.129Z,44.00
2019-03-20T10:41:41.737Z,43.00
2019-03-20T10:44:46.830Z,43.20
2019-03-20T10:47:52.964Z,42.80
2019-03-20T10:50:58.496Z,42.60
2019-03-20T10:54:05.590Z,42.00
2019-03-20T10:57:14.435Z,42.00
2019-03-20T11:00:22.866Z,42.20
2019-03-20T11:03:27.358Z,41.90
2019-03-20T11:06:32.941Z,42.20
2019-03-20T11:09:37.864Z,42.20
2019-03-20T11:12:43.332Z,41.60
2019-03-20T11:15:48.193Z,41.20
2019-03-20T11:18:57.438Z,41.80
2019-03-20T11:22:17.942Z,41.90
2019-03-20T11:25:14.677Z,42.20
2019-03-20T11:28:20.225Z,41.90
2019-03-20T11:31:26.559Z,42.10
2019-03-20T11:34:31.021Z,41.90
2019-03-20T11:37:35.491Z,41.80
2019-03-20T11:40:40.247Z,41.60
2019-03-20T11:43:44.714Z,41.60
2019-03-20T11:46:49.096Z,41.30
2019-03-20T11:49:53.927Z,41.00
2019-03-20T11:52:58.686Z,40.90
2019-03-20T11:56:04.867Z,40.50
2019-03-20T11:59:11.148Z,40.70
2019-03-20T12:02:27.717Z,40.40
2019-03-20T12:05:26.165Z,40.40
2019-03-20T12:08:30.987Z,40.10
2019-03-20T12:11:45.490Z,40.20
2019-03-20T12:14:42.331Z,40.80
2019-03-20T12:17:47.081Z,40.80
2019-03-20T12:20:54.895Z,40.70
2019-03-20T12:23:59.356Z,41.30
2019-03-20T12:27:14.580Z,41.10
2019-03-20T12:30:12.998Z,41.30
2019-03-20T12:33:17.381Z,42.20
2019-03-20T12:36:22.486Z,41.50
2019-03-20T12:39:26.937Z,41.60
2019-03-20T12:42:31.426Z,41.80
2019-03-20T12:45:35.833Z,41.80
2019-03-20T12:48:41.348Z,41.80
2019-03-20T12:51:45.894Z,41.80
2019-03-20T12:54:51.370Z,41.40
2019-03-20T12:57:57.568Z,41.50
2019-03-20T13:01:02.386Z,41.60
2019-03-20T13:04:07.997Z,41.30
2019-03-20T13:07:13.427Z,41.40
2019-03-20T13:10:19.200Z,41.20
2019-03-20T13:13:23.694Z,38.90
2019-03-20T13:16:28.490Z,40.10
2019-03-20T13:19:32.959Z,40.70
2019-03-20T13:22:37.463Z,40.80
2019-03-20T13:25:43.366Z,39.90
2019-03-20T13:28:47.826Z,40.50
2019-03-20T13:31:52.321Z,40.80
2019-03-20T13:34:56.745Z,41.10
2019-03-20T13:38:01.149Z,41.00
2019-03-20T13:41:05.658Z,41.10
2019-03-20T13:44:10.125Z,41.40
2019-03-20T13:47:14.599Z,41.60
2019-03-20T13:50:19.015Z,41.60
2019-03-20T13:53:23.856Z,41.10
2019-03-20T13:56:28.693Z,41.40
2019-03-20T13:59:33.133Z,42.50
2019-03-20T14:02:39.055Z,41.90
2019-03-20T14:05:43.499Z,42.00
2019-03-20T14:08:48.007Z,42.00
2019-03-20T14:11:55.800Z,41.30
2019-03-20T14:15:00.382Z,41.80
2019-03-20T14:18:07.913Z,41.80
2019-03-20T14:21:13.821Z,41.70
2019-03-20T14:24:19.415Z,41.60
2019-03-20T14:27:23.895Z,41.70
2019-03-20T14:30:30.237Z,41.90
2019-03-20T14:33:37.974Z,41.90
2019-03-20T14:36:44.251Z,41.90
2019-03-20T14:39:50.754Z,41.80
2019-03-20T14:42:55.590Z,42.00
2019-03-20T14:46:00.008Z,42.00
2019-03-20T14:49:04.875Z,42.10
2019-03-20T14:52:12.122Z,42.30
2019-03-20T14:55:16.612Z,42.40
2019-03-20T14:58:21.071Z,42.30
2019-03-20T15:01:25.903Z,42.50
2019-03-20T15:04:30.384Z,42.50
2019-03-20T15:07:34.865Z,41.80
2019-03-20T15:10:46.006Z,42.00
2019-03-20T15:13:46.834Z,42.80
2019-03-20T15:16:51.482Z,42.50
2019-03-20T15:19:55.949Z,42.50
2019-03-20T15:23:00.791Z,42.50
2019-03-20T15:26:05.457Z,42.60
2019-03-20T15:29:11.056Z,42.50
2019-03-20T15:32:15.933Z,42.40
2019-03-20T15:35:22.454Z,42.50
2019-03-20T15:38:29.527Z,42.50
2019-03-20T15:41:35.511Z,42.20
2019-03-20T15:44:40.370Z,42.40
2019-03-20T15:47:45.737Z,42.70
2019-03-20T15:50:50.231Z,42.70
2019-03-20T15:53:55.323Z,43.00
2019-03-20T15:57:00.163Z,43.10
2019-03-20T16:00:07.417Z,43.10
2019-03-20T16:03:15.139Z,43.00
2019-03-20T16:06:19.581Z,43.80
2019-03-20T16:09:25.751Z,43.10
2019-03-20T16:12:30.561Z,43.20
2019-03-20T16:15:36.252Z,43.30
2019-03-20T16:18:40.750Z,43.20
2019-03-20T16:21:49.852Z,43.20
2019-03-20T16:24:54.852Z,43.30
2019-03-20T16:27:59.605Z,43.40
2019-03-20T16:31:03.959Z,43.40
2019-03-20T16:34:09.469Z,43.50
2019-03-20T16:37:13.999Z,43.60
2019-03-20T16:40:20.257Z,43.80
2019-03-20T16:43:24.532Z,43.60
2019-03-20T16:46:28.843Z,43.60
2019-03-20T16:49:33.200Z,43.70
2019-03-20T16:52:37.580Z,43.80
2019-03-20T16:55:42.011Z,43.90
2019-03-20T16:58:46.369Z,44.00
2019-03-20T17:01:50.691Z,43.90
2019-03-20T17:04:55.071Z,44.00
2019-03-20T17:07:59.993Z,44.00
2019-03-20T17:11:04.419Z,44.10
2019-03-20T17:14:08.788Z,44.10
2019-03-20T17:17:15.400Z,44.30
2019-03-20T17:20:19.981Z,44.30
2019-03-20T17:23:24.347Z,44.10
2019-03-20T17:26:28.707Z,44.60
2019-03-20T17:29:33.015Z,44.70
2019-03-20T17:32:38.511Z,44.90
2019-03-20T17:35:42.880Z,45.00
2019-03-20T17:38:47.333Z,45.20
2019-03-20T17:41:51.729Z,45.30
2019-03-20T17:44:56.742Z,45.30
2019-03-20T17:48:01.127Z,45.60
2019-03-20T17:51:05.563Z,45.80
2019-03-20T17:54:09.972Z,46.00
2019-03-20T17:57:14.541Z,46.10
2019-03-20T18:00:35.824Z,46.20
2019-03-20T18:03:40.245Z,46.20
2019-03-20T18:06:44.637Z,46.40
2019-03-20T18:09:55.110Z,46.50
2019-03-20T18:12:59.460Z,46.50
2019-03-20T18:16:04.941Z,46.80
2019-03-20T18:19:09.238Z,47.50
2019-03-20T18:22:13.639Z,47.00
2019-03-20T18:25:18.024Z,47.00
2019-03-20T18:28:22.446Z,47.20
2019-03-20T18:31:26.789Z,47.20
2019-03-20T18:34:32.360Z,47.30
2019-03-20T18:37:36.771Z,47.40
2019-03-20T18:40:42.076Z,47.60
2019-03-20T18:43:46.537Z,47.70
2019-03-20T18:46:53.870Z,47.70
2019-03-20T18:50:01.652Z,47.80
2019-03-20T18:53:06.092Z,47.80
2019-03-20T18:56:10.499Z,48.00
2019-03-20T18:59:16.645Z,48.00
2019-03-20T19:02:22.090Z,48.00
2019-03-20T19:05:46.879Z,48.30
2019-03-20T19:08:53.230Z,48.20
2019-03-20T19:12:08.110Z,48.20
2019-03-20T19:15:06.604Z,48.30
2019-03-20T19:18:11.105Z,48.30
2019-03-20T19:21:15.909Z,48.30
2019-03-20T19:24:22.299Z,48.30
2019-03-20T19:27:27.884Z,48.40
2019-03-20T19:30:32.312Z,48.50
2019-03-20T19:33:36.717Z,48.50
2019-03-20T19:36:41.158Z,48.50
2019-03-20T19:39:46.344Z,48.60
2019-03-20T19:42:51.236Z,48.60
2019-03-20T19:45:57.239Z,48.60
2019-03-20T19:49:01.624Z,48.70
2019-03-20T19:52:08.678Z,48.70
2019-03-20T19:55:13.790Z,48.70
2019-03-20T19:58:18.320Z,48.70
2019-03-20T20:01:23.082Z,48.80
2019-03-20T20:04:28.453Z,49.10
2019-03-20T20:07:33.938Z,49.30
2019-03-20T20:10:38.304Z,49.40
2019-03-20T20:13:44.235Z,49.40
2019-03-20T20:16:48.638Z,49.50
2019-03-20T20:19:54.818Z,49.60
2019-03-20T20:22:59.195Z,49.60
2019-03-20T20:26:03.970Z,49.60
2019-03-20T20:29:08.310Z,49.70
2019-03-20T20:32:12.703Z,49.70
2019-03-20T20:35:17.720Z,49.70
2019-03-20T20:38:22.483Z,49.70
2019-03-20T20:41:27.558Z,49.70
2019-03-20T20:44:33.337Z,49.80
2019-03-20T20:47:37.898Z,49.90
2019-03-20T20:50:42.231Z,49.90
2019-03-20T20:53:47.090Z,50.00
2019-03-20T20:56:51.774Z,50.10
2019-03-20T20:59:56.157Z,50.00
2019-03-20T21:03:00.624Z,50.10
2019-03-20T21:06:05.789Z,50.00
2019-03-20T21:09:10.241Z,50.10
2019-03-20T21:12:14.610Z,50.20
2019-03-20T21:15:23.744Z,50.30
2019-03-20T21:19:05.070Z,50.40
2019-03-20T21:22:47.678Z,50.40
2019-03-20T21:25:52.502Z,50.40
2019-03-20T21:29:42.081Z,50.40
2019-03-20T21:32:46.950Z,50.70
2019-03-20T21:36:48.796Z,50.80
2019-03-20T21:39:54.064Z,50.90
2019-03-20T21:43:35.652Z,50.90
2019-03-20T21:47:13.244Z,50.90
2019-03-20T21:51:01.483Z,51.10
2019-03-20T21:54:44.047Z,51.10
2019-03-20T21:57:59.957Z,51.20
2019-03-20T22:01:28.114Z,51.20
2019-03-20T22:04:33.000Z,51.10
2019-03-20T22:07:37.888Z,51.00
2019-03-20T22:11:09.818Z,51.00
2019-03-20T22:14:14.614Z,51.10
2019-03-20T22:18:05.180Z,51.20
2019-03-20T22:21:39.657Z,51.20
2019-03-20T22:25:18.327Z,51.20
2019-03-20T22:28:45.506Z,51.30
2019-03-20T22:32:13.921Z,51.30
2019-03-20T22:35:49.120Z,51.30
2019-03-20T22:39:30.141Z,51.30
2019-03-20T22:42:44.462Z,51.20
2019-03-20T22:46:24.105Z,51.30
2019-03-20T22:50:24.741Z,51.30
2019-03-20T22:53:57.327Z,51.20
2019-03-20T22:57:52.119Z,51.30
2019-03-20T23:00:57.543Z,51.20
2019-03-20T23:04:08.036Z,51.30
2019-03-20T23:07:13.231Z,51.30
2019-03-20T23:10:18.162Z,51.50
2019-03-20T23:13:22.956Z,51.50
2019-03-20T23:16:28.899Z,51.40
2019-03-20T23:19:34.306Z,51.50
2019-03-20T23:22:39.258Z,51.50
2019-03-20T23:25:44.320Z,51.40
2019-03-20T23:28:49.665Z,51.40
2019-03-20T23:32:00.278Z,51.60
2019-03-20T23:35:06.158Z,51.30
2019-03-20T23:38:11.370Z,51.70
2019-03-20T23:41:16.229Z,51.70
2019-03-20T23:44:21.389Z,51.80
2019-03-20T23:47:38.303Z,51.80
2019-03-20T23:50:43.906Z,51.80
2019-03-20T23:53:51.877Z,51.90
2019-03-20T23:56:56.750Z,52.00
